createdAt,value
2022-12-23T00:00:53.842Z,91813.03
2022-12-23T00:03:27.316Z,91808.88
2022-12-23T00:06:00.294Z,91808.13
2022-12-23T00:08:34.443Z,91809.66
2022-12-23T00:11:14.277Z,91813.03
2022-12-23T00:14:04.859Z,91810.19
2022-12-23T00:16:37.974Z,91813.53
2022-12-23T00:19:10.554Z,91807.63
2022-12-23T00:21:42.864Z,91812.75
2022-12-23T00:24:15.241Z,91815.59
2022-12-23T00:26:48.225Z,91812.22
2022-12-23T00:29:20.723Z,91812.75
2022-12-23T00:31:53.044Z,91814.84
2022-12-23T00:34:25.584Z,91811.22
2022-12-23T00:36:57.879Z,91818.72
2022-12-23T00:39:54.632Z,91812.56
2022-12-23T00:42:45.566Z,91805.09
2022-12-23T00:45:18.095Z,91805.09
2022-12-23T00:48:08.607Z,91798.16
2022-12-23T00:50:40.864Z,91801.50
2022-12-23T00:53:13.271Z,91798.69
2022-12-23T00:55:47.067Z,91801.25
2022-12-23T00:58:21.344Z,91801.53
2022-12-23T01:01:12.240Z,91802.84
2022-12-23T01:04:02.536Z,91811.34
2022-12-23T01:06:34.874Z,91808.78
2022-12-23T01:09:07.182Z,91813.91
2022-12-23T01:11:39.633Z,91804.66
2022-12-23T01:14:12.876Z,91813.38
2022-12-23T01:16:45.389Z,91810.28
2022-12-23T01:19:18.259Z,91806.44
2022-12-23T01:21:50.613Z,91816.72
2022-12-23T01:24:23.430Z,91817.25
2022-12-23T01:26:56.164Z,91818.31
2022-12-23T01:29:29.361Z,91820.66
2022-12-23T01:32:01.820Z,91818.31
2022-12-23T01:34:37.150Z,91816.81
2022-12-23T01:37:10.069Z,91828.66
2022-12-23T01:39:42.993Z,91814.72
2022-12-23T01:42:35.214Z,91814.50
2022-12-23T01:45:14.674Z,91826.78
2022-12-23T01:47:52.325Z,91806.94
2022-12-23T01:50:28.917Z,91807.22
2022-12-23T01:53:07.831Z,91805.66
2022-12-23T01:55:45.599Z,91784.94
2022-12-23T01:58:22.178Z,91795.47
2022-12-23T02:01:15.637Z,91797.56
2022-12-23T02:03:50.310Z,91785.22
2022-12-23T02:06:43.306Z,91787.56
2022-12-23T02:09:17.904Z,91786.06
2022-12-23T02:12:20.755Z,91779.63
2022-12-23T02:15:28.628Z,91775.84
2022-12-23T02:18:14.663Z,91779.69
2022-12-23T02:21:03.774Z,91779.19
2022-12-23T02:24:15.656Z,91774.53
2022-12-23T02:27:13.989Z,91768.41
2022-12-23T02:30:23.162Z,91769.91
2022-12-23T02:33:15.068Z,91766.59
2022-12-23T02:35:57.364Z,91768.13
2022-12-23T02:38:35.778Z,91763.31
2022-12-23T02:41:17.246Z,91754.81
2022-12-23T02:43:56.943Z,91760.22
2022-12-23T02:46:35.628Z,91755.09
2022-12-23T02:49:13.098Z,91764.31
2022-12-23T02:51:50.043Z,91760.75
2022-12-23T02:54:27.950Z,91764.31
2022-12-23T02:57:03.943Z,91751.25
2022-12-23T02:59:41.839Z,91755.38
2022-12-23T03:02:14.421Z,91756.16
2022-12-23T03:04:47.587Z,91756.91
2022-12-23T03:07:23.844Z,91746.38
2022-12-23T03:10:02.840Z,91732.22
2022-12-23T03:12:51.052Z,91740.84
2022-12-23T03:15:37.074Z,91739.81
2022-12-23T03:18:16.595Z,91739.34
2022-12-23T03:20:52.655Z,91740.09
2022-12-23T03:23:30.255Z,91740.09
2022-12-23T03:26:09.285Z,91736.78
2022-12-23T03:28:46.332Z,91736.56
2022-12-23T03:31:24.928Z,91739.66
2022-12-23T03:34:02.363Z,91742.75
2022-12-23T03:36:40.798Z,91730.97
2022-12-23T03:39:17.365Z,91737.44
2022-12-23T03:41:56.110Z,91742.31
2022-12-23T03:44:32.416Z,91746.72
2022-12-23T03:47:09.801Z,91740.06
2022-12-23T03:49:47.584Z,91734.66
2022-12-23T03:52:26.915Z,91744.69
2022-12-23T03:55:04.359Z,91731.81
2022-12-23T03:57:41.265Z,91745.66
2022-12-23T04:00:13.854Z,91767.91
2022-12-23T04:02:54.426Z,91750.19
2022-12-23T04:05:31.746Z,91761.84
2022-12-23T04:08:13.328Z,91759.53
2022-12-23T04:10:46.209Z,91757.88
2022-12-23T04:13:18.669Z,91758.59
2022-12-23T04:15:51.046Z,91765.13
2022-12-23T04:18:23.439Z,91774.81
2022-12-23T04:20:55.987Z,91771.53
2022-12-23T04:23:29.056Z,91778.78
2022-12-23T04:26:01.450Z,91768.75
2022-12-23T04:28:33.842Z,91766.19
2022-12-23T04:31:06.141Z,91767.72
2022-12-23T04:33:38.561Z,91754.03
2022-12-23T04:36:11.257Z,91752.56
2022-12-23T04:38:44.320Z,91753.81
2022-12-23T04:41:16.661Z,91759.84
2022-12-23T04:43:52.921Z,91759.91
2022-12-23T04:46:25.744Z,91765.16
2022-12-23T04:48:58.157Z,91760.78
2022-12-23T04:51:30.473Z,91761.03
2022-12-23T04:54:03.706Z,91757.16
2022-12-23T04:56:36.041Z,91757.19
2022-12-23T04:59:09.793Z,91759.28
2022-12-23T05:01:42.470Z,91755.66
2022-12-23T05:04:15.095Z,91767.47
2022-12-23T05:06:47.429Z,91759.00
2022-12-23T05:09:20.579Z,91762.84
2022-12-23T05:11:52.920Z,91764.38
2022-12-23T05:14:25.329Z,91769.03
2022-12-23T05:17:02.168Z,91774.47
2022-12-23T05:19:37.723Z,91771.16
2022-12-23T05:22:10.203Z,91777.31
2022-12-23T05:24:43.280Z,91775.81
2022-12-23T05:27:15.660Z,91769.38
2022-12-23T05:29:48.035Z,91794.22
2022-12-23T05:32:20.392Z,91774.72
2022-12-23T05:34:52.789Z,91779.13
2022-12-23T05:37:25.117Z,91775.72
2022-12-23T05:39:58.143Z,91768.31
2022-12-23T05:42:30.636Z,91771.44
2022-12-23T05:45:03.385Z,91777.28
2022-12-23T05:47:36.192Z,91783.22
2022-12-23T05:50:09.248Z,91779.94
2022-12-23T05:52:41.584Z,91782.03
2022-12-23T05:55:14.651Z,91786.91
2022-12-23T05:57:46.977Z,91790.56
2022-12-23T06:00:20.822Z,91795.22
2022-12-23T06:02:54.194Z,91800.63
2022-12-23T06:05:27.195Z,91796.53
2022-12-23T06:07:59.503Z,91796.78
2022-12-23T06:10:32.607Z,91793.69
2022-12-23T06:13:04.945Z,91798.56
2022-12-23T06:15:37.417Z,91801.66
2022-12-23T06:18:09.901Z,91807.00
2022-12-23T06:20:45.212Z,91805.25
2022-12-23T06:23:17.685Z,91807.81
2022-12-23T06:25:58.232Z,91806.28
2022-12-23T06:28:30.605Z,91812.25
2022-12-23T06:31:03.072Z,91817.63
2022-12-23T06:33:35.422Z,91813.75
2022-12-23T06:36:08.544Z,91817.88
2022-12-23T06:38:40.921Z,91817.66
2022-12-23T06:41:13.932Z,91814.31
2022-12-23T06:43:49.814Z,91823.84
2022-12-23T06:46:24.948Z,91814.84
2022-12-23T06:48:57.270Z,91815.88
2022-12-23T06:51:29.646Z,91815.91
2022-12-23T06:54:02.161Z,91818.16
2022-12-23T06:56:35.250Z,91819.44
2022-12-23T06:59:07.617Z,91820.00
2022-12-23T07:01:40.255Z,91821.56
2022-12-23T07:04:12.641Z,91824.56
2022-12-23T07:06:45.094Z,91817.88
2022-12-23T07:09:17.484Z,91824.09
2022-12-23T07:11:50.504Z,91823.59
2022-12-23T07:14:22.814Z,91821.81
2022-12-23T07:16:55.224Z,91824.66
2022-12-23T07:19:27.571Z,91820.06
2022-12-23T07:21:59.857Z,91818.28
2022-12-23T07:24:32.635Z,91819.03
2022-12-23T07:27:05.646Z,91829.09
2022-12-23T07:29:37.999Z,91833.25
2022-12-23T07:32:10.395Z,91830.94
2022-12-23T07:34:42.745Z,91814.47
2022-12-23T07:37:15.139Z,91832.53
2022-12-23T07:39:47.513Z,91841.81
2022-12-23T07:45:12.858Z,91839.53
2022-12-23T07:47:45.307Z,91843.16
2022-12-23T07:50:17.770Z,91839.81
2022-12-23T07:52:50.802Z,91838.53
2022-12-23T07:55:23.172Z,91844.47
2022-12-23T07:57:56.205Z,91839.31
2022-12-23T08:00:28.770Z,91847.09
2022-12-23T08:03:01.485Z,91841.94
2022-12-23T08:05:33.831Z,91841.41
2022-12-23T08:08:06.203Z,91837.00
2022-12-23T08:10:44.384Z,91836.50
2022-12-23T08:13:21.033Z,91842.97
2022-12-23T08:15:57.015Z,91851.47
2022-12-23T08:18:30.501Z,91849.91
2022-12-23T08:21:04.463Z,91851.72
2022-12-23T08:23:36.829Z,91858.16
2022-12-23T08:26:11.537Z,91860.75
2022-12-23T08:28:45.433Z,91854.03
2022-12-23T08:31:19.644Z,91848.81
2022-12-23T08:33:54.087Z,91852.94
2022-12-23T08:36:29.042Z,91854.50
2022-12-23T08:39:04.012Z,91856.03
2022-12-23T08:41:39.725Z,91862.22
2022-12-23T08:44:13.824Z,91863.50
2022-12-23T08:46:46.338Z,91864.28
2022-12-23T08:49:18.708Z,91864.78
2022-12-23T08:51:51.298Z,91852.13
2022-12-23T08:54:24.471Z,91858.78
2022-12-23T08:56:56.834Z,91857.22
2022-12-23T08:59:29.846Z,91858.22
2022-12-23T09:02:02.738Z,91855.91
2022-12-23T09:04:36.232Z,91858.19
2022-12-23T09:07:08.649Z,91853.22
2022-12-23T09:09:41.011Z,91848.28
2022-12-23T09:12:13.440Z,91849.78
2022-12-23T09:14:47.009Z,91853.22
2022-12-23T09:17:19.450Z,91846.78
2022-12-23T09:19:53.178Z,91854.03
2022-12-23T09:22:25.871Z,91856.56
2022-12-23T09:25:04.638Z,91856.00
2022-12-23T09:27:37.712Z,91851.03
2022-12-23T09:30:11.830Z,91849.16
2022-12-23T09:32:44.303Z,91852.50
2022-12-23T09:35:17.180Z,91857.31
2022-12-23T09:37:49.592Z,91848.22
2022-12-23T09:40:22.478Z,91845.81
2022-12-23T09:43:07.220Z,91855.31
2022-12-23T09:45:58.456Z,91852.69
2022-12-23T09:48:35.851Z,91847.44
2022-12-23T09:51:10.363Z,91840.38
2022-12-23T09:53:52.278Z,91848.66
2022-12-23T09:56:31.379Z,91848.84
2022-12-23T09:59:16.627Z,91848.72
2022-12-23T10:01:56.135Z,91848.09
2022-12-23T10:04:45.252Z,91851.59
2022-12-23T10:07:25.426Z,91842.72
2022-12-23T10:09:59.381Z,91844.22
2022-12-23T10:12:40.243Z,91836.25
2022-12-23T10:15:21.196Z,91833.81
2022-12-23T10:17:58.149Z,91834.53
2022-12-23T10:20:38.999Z,91830.50
2022-12-23T10:23:16.909Z,91825.22
2022-12-23T10:25:51.375Z,91822.44
2022-12-23T10:28:23.947Z,91819.91
2022-12-23T10:31:38.502Z,91820.34
2022-12-23T10:34:04.701Z,91816.19
2022-12-23T10:36:44.041Z,91821.63
2022-12-23T10:39:27.396Z,91825.19
2022-12-23T10:42:14.677Z,91790.13
2022-12-23T10:45:04.351Z,91813.22
2022-12-23T10:47:41.626Z,91805.78
2022-12-23T10:50:36.254Z,91801.50
2022-12-23T10:53:10.732Z,91801.22
2022-12-23T10:55:43.621Z,91808.63
2022-12-23T10:58:17.821Z,91806.09
2022-12-23T11:00:54.315Z,91810.72
2022-12-23T11:03:30.994Z,91806.66
2022-12-23T11:06:07.140Z,91808.56
2022-12-23T11:08:40.403Z,91810.78
2022-12-23T11:11:12.822Z,91813.13
2022-12-23T11:13:46.230Z,91808.19
2022-12-23T11:16:23.018Z,91809.66
2022-12-23T11:18:59.195Z,91813.25
2022-12-23T11:21:33.415Z,91812.00
2022-12-23T11:24:17.218Z,91817.75
2022-12-23T11:26:58.398Z,91815.38
2022-12-23T11:29:34.371Z,91807.84
2022-12-23T11:32:16.625Z,91817.56
2022-12-23T11:34:50.524Z,91815.72
2022-12-23T11:37:34.541Z,91810.09
2022-12-23T11:40:20.549Z,91807.38
2022-12-23T11:42:57.468Z,91810.53
2022-12-23T11:45:32.682Z,91817.44
2022-12-23T11:48:06.809Z,91818.00
2022-12-23T11:50:40.297Z,91811.25
2022-12-23T11:53:21.821Z,91811.94
2022-12-23T11:55:59.733Z,91811.81
2022-12-23T11:58:39.706Z,91793.63
2022-12-23T12:01:16.422Z,91805.00
2022-12-23T12:03:54.363Z,91799.50
2022-12-23T12:06:27.712Z,91801.72
2022-12-23T12:09:06.050Z,91796.94
2022-12-23T12:11:43.899Z,91793.47
2022-12-23T12:14:22.625Z,91789.72
2022-12-23T12:17:00.351Z,91793.38
2022-12-23T12:19:36.350Z,91797.47
2022-12-23T12:22:33.344Z,91801.78
2022-12-23T12:25:19.079Z,91797.16
2022-12-23T12:27:56.804Z,91789.53
2022-12-23T12:30:33.477Z,91791.97
2022-12-23T12:33:14.817Z,91803.41
2022-12-23T12:35:53.432Z,91801.22
2022-12-23T12:38:31.498Z,91799.00
2022-12-23T12:41:15.893Z,91794.84
2022-12-23T12:43:52.303Z,91793.84
2022-12-23T12:46:30.958Z,91791.78
2022-12-23T12:49:11.647Z,91791.25
2022-12-23T12:51:49.881Z,91794.16
2022-12-23T12:54:27.267Z,91797.53
2022-12-23T12:57:01.869Z,91799.50
2022-12-23T12:59:36.811Z,91792.00
2022-12-23T13:02:28.089Z,91797.53
2022-12-23T13:05:16.763Z,91797.06
2022-12-23T13:08:02.437Z,91801.91
2022-12-23T13:10:42.844Z,91790.00
2022-12-23T13:13:35.364Z,91800.25
2022-12-23T13:16:19.671Z,91802.91
2022-12-23T13:18:58.372Z,91791.50
2022-12-23T13:21:37.047Z,91777.47
2022-12-23T13:24:19.566Z,91790.22
2022-12-23T13:27:02.448Z,91799.38
2022-12-23T13:29:57.947Z,91797.25
2022-12-23T13:32:49.549Z,91785.69
2022-12-23T13:35:38.792Z,91780.84
2022-12-23T13:38:25.355Z,91778.28
2022-12-23T13:41:02.785Z,91780.50
2022-12-23T13:43:42.802Z,91787.78
2022-12-23T13:46:22.718Z,91788.41
2022-12-23T13:49:02.659Z,91788.91
2022-12-23T13:51:43.247Z,91783.72
2022-12-23T13:54:26.606Z,91788.66
2022-12-23T13:57:07.751Z,91781.63
2022-12-23T13:59:41.741Z,91786.81
2022-12-23T14:02:43.178Z,91793.47
2022-12-23T14:05:35.853Z,91789.34
2022-12-23T14:08:26.600Z,91781.09
2022-12-23T14:11:02.574Z,91786.91
2022-12-23T14:13:45.594Z,91786.88
2022-12-23T14:16:48.229Z,91786.59
2022-12-23T14:19:42.040Z,91779.81
2022-12-23T14:22:44.979Z,91788.41
2022-12-23T14:25:39.927Z,91781.19
2022-12-23T14:28:26.972Z,91786.06
2022-12-23T14:30:59.637Z,91794.28
2022-12-23T14:33:36.408Z,91792.44
2022-12-23T14:36:23.042Z,91794.53
2022-12-23T14:39:28.615Z,91796.00
2022-12-23T14:42:06.457Z,91800.84
2022-12-23T14:44:49.611Z,91796.94
2022-12-23T14:47:35.169Z,91799.66
2022-12-23T14:50:37.370Z,91805.25
2022-12-23T14:53:22.229Z,91811.94
2022-12-23T14:56:20.639Z,91806.84
2022-12-23T14:59:13.215Z,91807.81
2022-12-23T15:01:48.513Z,91809.47
2022-12-23T15:04:24.319Z,91817.28
2022-12-23T15:07:02.084Z,91818.25
2022-12-23T15:09:39.333Z,91818.63
2022-12-23T15:12:20.276Z,91819.38
2022-12-23T15:14:57.017Z,91816.19
2022-12-23T15:17:31.404Z,91803.81
2022-12-23T15:20:12.392Z,91825.47
2022-12-23T15:22:46.868Z,91832.09
2022-12-23T15:25:22.127Z,91832.34
2022-12-23T15:28:01.424Z,91834.16
2022-12-23T15:30:35.722Z,91838.88
2022-12-23T15:33:34.758Z,91842.59
2022-12-23T15:36:04.374Z,91847.94
2022-12-23T15:38:38.688Z,91845.50
2022-12-23T15:41:17.845Z,91847.41
2022-12-23T15:43:50.358Z,91843.34
2022-12-23T15:46:29.875Z,91839.88
2022-12-23T15:49:02.717Z,91846.66
2022-12-23T15:54:33.700Z,91847.50
2022-12-23T15:57:06.727Z,91856.09
2022-12-23T15:59:39.592Z,91855.56
2022-12-23T16:02:50.205Z,91853.94
2022-12-23T16:05:22.333Z,91856.53
2022-12-23T16:08:10.678Z,91862.28
2022-12-23T16:10:57.858Z,91861.81
2022-12-23T16:13:33.123Z,91854.84
2022-12-23T16:16:32.835Z,91850.56
2022-12-23T16:19:05.354Z,91845.41
2022-12-23T16:21:37.916Z,91856.94
2022-12-23T16:24:12.894Z,91858.09
2022-12-23T16:26:45.371Z,91855.03
2022-12-23T16:29:18.648Z,91860.81
2022-12-23T16:32:01.224Z,91854.13
2022-12-23T16:34:34.087Z,91851.81
2022-12-23T16:37:07.648Z,91855.22
2022-12-23T16:39:40.621Z,91853.22
2022-12-23T16:42:22.815Z,91864.94
2022-12-23T16:44:55.863Z,91857.47
2022-12-23T16:47:28.833Z,91862.69
2022-12-23T16:50:01.327Z,91871.03
2022-12-23T16:52:33.727Z,91870.81
2022-12-23T16:55:13.966Z,91850.25
2022-12-23T16:57:46.435Z,91867.34
2022-12-23T17:00:19.726Z,91875.78
2022-12-23T17:02:52.241Z,91880.19
2022-12-23T17:05:24.693Z,91870.91
2022-12-23T17:07:57.266Z,91865.28
2022-12-23T17:10:29.703Z,91863.63
2022-12-23T17:13:02.125Z,91864.38
2022-12-23T17:15:35.086Z,91865.16
2022-12-23T17:18:12.372Z,91871.34
2022-12-23T17:20:47.168Z,91870.06
2022-12-23T17:23:26.590Z,91875.53
2022-12-23T17:25:59.111Z,91866.97
2022-12-23T17:28:32.656Z,91870.88
2022-12-23T17:31:12.156Z,91876.41
2022-12-23T17:33:46.744Z,91874.38
2022-12-23T17:36:19.261Z,91869.72
2022-12-23T17:38:51.892Z,91868.97
2022-12-23T17:41:28.414Z,91879.81
2022-12-23T17:44:01.477Z,91875.97
2022-12-23T17:46:34.948Z,91876.75
2022-12-23T17:49:07.338Z,91874.69
2022-12-23T17:51:40.963Z,91872.34
2022-12-23T17:54:21.587Z,91873.41
2022-12-23T17:56:53.694Z,91879.56
2022-12-23T17:59:26.014Z,91876.00
2022-12-23T18:01:59.075Z,91889.91
2022-12-23T18:04:31.529Z,91888.13
2022-12-23T18:07:03.856Z,91890.44
2022-12-23T18:09:36.231Z,91885.28
2022-12-23T18:12:24.948Z,91880.38
2022-12-23T18:14:57.910Z,91887.84
2022-12-23T18:17:31.368Z,91894.81
2022-12-23T18:20:04.430Z,91900.19
2022-12-23T18:22:36.926Z,91896.56
2022-12-23T18:25:15.641Z,91895.28
2022-12-23T18:27:48.082Z,91902.47
2022-12-23T18:30:21.725Z,91895.00
2022-12-23T18:32:54.854Z,91885.72
2022-12-23T18:35:30.032Z,91889.84
2022-12-23T18:38:02.351Z,91893.44
2022-12-23T18:40:34.973Z,91898.56
2022-12-23T18:43:15.594Z,91904.75
2022-12-23T18:45:52.760Z,91906.81
2022-12-23T18:48:26.672Z,91916.09
2022-12-23T18:50:59.024Z,91902.69
2022-12-23T18:53:31.340Z,91907.84
2022-12-23T18:56:03.909Z,91897.50
2022-12-23T18:58:36.232Z,91899.31
2022-12-23T19:01:11.839Z,91900.31
2022-12-23T19:03:45.915Z,91896.41
2022-12-23T19:06:18.280Z,91895.88
2022-12-23T19:08:50.619Z,91881.94
2022-12-23T19:11:22.973Z,91882.97
2022-12-23T19:13:55.261Z,91879.88
2022-12-23T19:16:27.670Z,91879.59
2022-12-23T19:19:00.872Z,91876.78
2022-12-23T19:21:33.390Z,91892.75
2022-12-23T19:24:05.916Z,91886.81
2022-12-23T19:26:38.312Z,91887.84
2022-12-23T19:29:10.710Z,91881.38
2022-12-23T19:31:43.146Z,91878.00
2022-12-23T19:34:16.233Z,91882.41
2022-12-23T19:36:48.715Z,91870.00
2022-12-23T19:39:23.302Z,91880.03
2022-12-23T19:41:55.925Z,91878.94
2022-12-23T19:44:28.366Z,91881.81
2022-12-23T19:47:01.732Z,91884.88
2022-12-23T19:49:34.669Z,91886.44
2022-12-23T19:52:07.103Z,91890.28
2022-12-23T19:54:39.431Z,91889.25
2022-12-23T19:57:11.892Z,91892.59
2022-12-23T19:59:44.205Z,91892.31
2022-12-23T20:02:16.984Z,91889.97
2022-12-23T20:04:50.054Z,91900.28
2022-12-23T20:07:22.545Z,91895.91
2022-12-23T20:09:54.954Z,91897.41
2022-12-23T20:12:27.327Z,91898.16
2022-12-23T20:14:59.677Z,91900.75
2022-12-23T20:17:32.080Z,91901.47
2022-12-23T20:20:06.911Z,91898.56
2022-12-23T20:22:39.288Z,91901.16
2022-12-23T20:25:11.599Z,91900.63
2022-12-23T20:27:43.989Z,91891.38
2022-12-23T20:30:16.380Z,91893.44
2022-12-23T20:32:48.763Z,91903.72
2022-12-23T20:35:21.801Z,91905.25
2022-12-23T20:37:54.208Z,91908.88
2022-12-23T20:40:26.528Z,91906.03
2022-12-23T20:42:59.109Z,91900.88
2022-12-23T20:45:31.493Z,91909.03
2022-12-23T20:48:04.651Z,91911.78
2022-12-23T20:50:39.225Z,91913.00
2022-12-23T20:53:11.755Z,91912.19
2022-12-23T20:55:44.227Z,91912.44
2022-12-23T20:58:34.965Z,91919.19
2022-12-23T21:01:08.722Z,91916.09
2022-12-23T21:03:41.453Z,91911.91
2022-12-23T21:06:14.691Z,91911.91
2022-12-23T21:08:47.705Z,91910.56
2022-12-23T21:11:20.055Z,91913.97
2022-12-23T21:13:52.485Z,91913.97
2022-12-23T21:16:24.845Z,91907.25
2022-12-23T21:18:58.073Z,91903.91
2022-12-23T21:21:31.180Z,91906.25
2022-12-23T21:24:04.767Z,91911.09
2022-12-23T21:26:37.689Z,91904.94
2022-12-23T21:29:10.553Z,91901.06
2022-12-23T21:31:42.928Z,91901.34
2022-12-23T21:34:15.413Z,91910.38
2022-12-23T21:36:48.494Z,91922.94
2022-12-23T21:39:20.921Z,91907.25
2022-12-23T21:41:53.246Z,91905.00
2022-12-23T21:44:25.815Z,91899.28
2022-12-23T21:46:58.179Z,91891.59
2022-12-23T21:49:30.571Z,91888.06
2022-12-23T21:52:03.942Z,91888.28
2022-12-23T21:54:36.374Z,91895.78
2022-12-23T21:57:09.191Z,91887.66
2022-12-23T21:59:41.563Z,91887.72
2022-12-23T22:02:15.617Z,91892.06
2022-12-23T22:04:48.122Z,91884.47
2022-12-23T22:07:21.125Z,91882.19
2022-12-23T22:09:53.499Z,91872.47
2022-12-23T22:12:25.781Z,91866.41
2022-12-23T22:14:58.194Z,91865.09
2022-12-23T22:17:30.520Z,91872.00
2022-12-23T22:20:03.726Z,91880.94
2022-12-23T22:22:36.721Z,91887.56
2022-12-23T22:25:09.671Z,91880.00
2022-12-23T22:27:42.009Z,91881.63
2022-12-23T22:30:14.698Z,91876.75
2022-12-23T22:32:47.215Z,91879.91
2022-12-23T22:35:19.622Z,91862.66
2022-12-23T22:37:52.613Z,91867.44
2022-12-23T22:40:25.024Z,91874.13
2022-12-23T22:42:57.301Z,91877.72
2022-12-23T22:45:29.964Z,91881.78
2022-12-23T22:48:02.579Z,91898.66
2022-12-23T22:50:35.169Z,91887.94
2022-12-23T22:53:08.093Z,91884.31
2022-12-23T22:55:40.771Z,91876.91
2022-12-23T22:58:13.078Z,91875.56
2022-12-23T23:00:45.470Z,91873.81
2022-12-23T23:03:17.859Z,91878.50
2022-12-23T23:05:58.575Z,91880.81
2022-12-23T23:08:33.571Z,91870.13
2022-12-23T23:11:06.035Z,91879.78
2022-12-23T23:13:38.373Z,91878.78
2022-12-23T23:16:10.740Z,91881.09
2022-12-23T23:18:43.290Z,91870.28
2022-12-23T23:21:15.936Z,91839.91
2022-12-23T23:23:49.134Z,91863.22
2022-12-23T23:26:25.959Z,91857.84
2022-12-23T23:28:58.251Z,91856.59
2022-12-23T23:31:45.880Z,91864.59
2022-12-23T23:34:18.279Z,91870.75
2022-12-23T23:36:50.728Z,91879.00
2022-12-23T23:39:23.941Z,91873.38
2022-12-23T23:41:56.367Z,91868.19
2022-12-23T23:44:28.789Z,91869.72
2022-12-23T23:47:01.367Z,91863.03
2022-12-23T23:49:33.865Z,91862.25
2022-12-23T23:52:06.200Z,91864.81
2022-12-23T23:54:39.174Z,91872.25
2022-12-23T23:57:11.611Z,91865.28
2022-12-23T23:59:43.947Z,91861.16
